createdAt,value
2022-11-24T00:01:35.094Z,4.78
2022-11-24T00:04:08.365Z,4.63
2022-11-24T00:06:39.195Z,4.55
2022-11-24T00:09:09.955Z,4.43
2022-11-24T00:11:40.743Z,4.39
2022-11-24T00:14:14.009Z,4.52
2022-11-24T00:16:44.162Z,4.68
2022-11-24T00:19:19.457Z,4.93
2022-11-24T00:21:49.885Z,5.05
2022-11-24T00:24:20.165Z,5.18
2022-11-24T00:26:50.211Z,5.34
2022-11-24T00:29:23.087Z,5.38
2022-11-24T00:31:53.237Z,5.46
2022-11-24T00:34:23.347Z,5.47
2022-11-24T00:36:53.696Z,5.50
2022-11-24T00:39:23.784Z,5.47
2022-11-24T00:41:53.874Z,5.52
2022-11-24T00:44:26.582Z,5.55
2022-11-24T00:46:56.715Z,5.55
2022-11-24T00:49:27.284Z,5.63
2022-11-24T00:51:57.347Z,5.74
2022-11-24T00:54:27.341Z,5.79
2022-11-24T00:56:57.353Z,5.78
2022-11-24T00:59:30.095Z,5.78
2022-11-24T01:02:00.303Z,5.86
2022-11-24T01:04:30.384Z,5.82
2022-11-24T01:07:00.417Z,5.80
2022-11-24T01:09:30.474Z,5.63
2022-11-24T01:12:06.331Z,5.55
2022-11-24T01:14:39.252Z,5.40
2022-11-24T01:17:09.327Z,5.24
2022-11-24T01:19:39.451Z,5.14
2022-11-24T01:22:09.839Z,5.15
2022-11-24T01:24:39.877Z,5.04
2022-11-24T01:27:10.208Z,4.99
2022-11-24T01:29:43.038Z,4.94
2022-11-24T01:32:13.106Z,4.91
2022-11-24T01:34:43.100Z,4.90
2022-11-24T01:37:13.209Z,4.95
2022-11-24T01:39:43.566Z,4.87
2022-11-24T01:42:13.857Z,4.74
2022-11-24T01:44:46.583Z,4.73
2022-11-24T01:47:36.753Z,4.62
2022-11-24T01:50:13.110Z,4.66
2022-11-24T01:52:51.943Z,4.80
2022-11-24T01:55:30.035Z,4.88
2022-11-24T01:58:07.543Z,4.99
2022-11-24T02:00:43.521Z,4.88
2022-11-24T02:03:17.527Z,4.88
2022-11-24T02:05:54.354Z,5.03
2022-11-24T02:08:34.517Z,4.99
2022-11-24T02:11:08.254Z,5.12
2022-11-24T02:13:42.447Z,5.25
2022-11-24T02:16:15.672Z,5.25
2022-11-24T02:18:48.198Z,5.42
2022-11-24T02:21:19.713Z,5.43
2022-11-24T02:23:59.968Z,5.45
2022-11-24T02:26:43.107Z,5.26
2022-11-24T02:29:15.322Z,5.09
2022-11-24T02:31:52.079Z,5.03
2022-11-24T02:34:22.255Z,5.02
2022-11-24T02:36:52.319Z,4.86
2022-11-24T02:39:22.793Z,4.74
2022-11-24T02:42:00.319Z,4.68
2022-11-24T02:44:39.338Z,4.62
2022-11-24T02:47:13.374Z,4.69
2022-11-24T02:49:44.138Z,4.56
2022-11-24T02:52:14.205Z,4.50
2022-11-24T02:54:44.401Z,4.36
2022-11-24T02:57:17.775Z,4.24
2022-11-24T02:59:47.973Z,4.19
2022-11-24T03:02:18.074Z,4.16
2022-11-24T03:04:48.168Z,4.15
2022-11-24T03:07:18.468Z,4.01
2022-11-24T03:09:48.834Z,3.94
2022-11-24T03:12:21.600Z,3.86
2022-11-24T03:14:51.868Z,3.79
2022-11-24T03:17:21.920Z,3.84
2022-11-24T03:19:52.264Z,3.88
2022-11-24T03:22:22.408Z,3.75
2022-11-24T03:24:53.369Z,3.75
2022-11-24T03:27:26.014Z,3.87
2022-11-24T03:29:56.053Z,3.89
2022-11-24T03:32:26.268Z,3.93
2022-11-24T03:34:56.312Z,3.87
2022-11-24T03:37:26.361Z,3.81
2022-11-24T03:39:56.397Z,3.75
2022-11-24T03:42:29.220Z,3.80
2022-11-24T03:45:04.268Z,3.76
2022-11-24T03:47:47.041Z,3.80
2022-11-24T03:50:17.290Z,3.84
2022-11-24T03:52:47.397Z,4.00
2022-11-24T03:55:18.143Z,4.09
2022-11-24T03:57:50.797Z,4.20
2022-11-24T04:00:21.557Z,4.35
2022-11-24T04:02:51.686Z,4.20
2022-11-24T04:05:22.061Z,4.18
2022-11-24T04:07:52.118Z,4.07
2022-11-24T04:10:22.169Z,3.97
2022-11-24T04:12:52.189Z,3.86
2022-11-24T04:15:23.802Z,3.75
2022-11-24T04:17:54.184Z,3.64
2022-11-24T04:20:25.101Z,3.45
2022-11-24T04:22:55.443Z,3.41
2022-11-24T04:25:25.849Z,3.48
2022-11-24T04:27:59.490Z,3.47
2022-11-24T04:30:31.429Z,3.47
2022-11-24T04:33:01.714Z,3.55
2022-11-24T04:35:31.766Z,3.66
2022-11-24T04:38:05.749Z,3.78
2022-11-24T04:40:36.853Z,3.81
2022-11-24T04:43:09.424Z,3.89
2022-11-24T04:45:39.767Z,3.99
2022-11-24T04:48:10.977Z,4.12
2022-11-24T04:50:41.920Z,4.13
2022-11-24T04:53:13.862Z,4.11
2022-11-24T04:55:44.423Z,4.09
2022-11-24T04:58:17.683Z,3.99
2022-11-24T05:00:47.750Z,3.97
2022-11-24T05:03:17.816Z,3.97
2022-11-24T05:05:47.852Z,3.98
2022-11-24T05:08:18.171Z,4.14
2022-11-24T05:10:45.585Z,4.20
2022-11-24T05:13:18.357Z,3.95
2022-11-24T05:15:48.414Z,3.70
2022-11-24T05:18:18.493Z,3.61
2022-11-24T05:20:49.622Z,3.51
2022-11-24T05:23:20.263Z,3.36
2022-11-24T05:25:50.271Z,3.35
2022-11-24T05:28:22.986Z,3.36
2022-11-24T05:30:53.076Z,3.26
2022-11-24T05:33:23.368Z,3.19
2022-11-24T05:35:53.730Z,3.12
2022-11-24T05:38:24.816Z,3.03
2022-11-24T05:40:55.136Z,3.02
2022-11-24T05:43:27.723Z,3.13
2022-11-24T05:45:57.790Z,3.18
2022-11-24T05:48:28.026Z,3.16
2022-11-24T05:50:59.405Z,3.13
2022-11-24T05:53:29.544Z,3.12
2022-11-24T05:55:59.704Z,3.23
2022-11-24T05:58:32.484Z,3.21
2022-11-24T06:01:02.797Z,3.31
2022-11-24T06:03:32.850Z,3.41
2022-11-24T06:06:03.253Z,3.68
2022-11-24T06:08:33.909Z,3.72
2022-11-24T06:11:17.337Z,3.70
2022-11-24T06:13:51.278Z,3.83
2022-11-24T06:16:21.533Z,4.00
2022-11-24T06:18:51.663Z,4.09
2022-11-24T06:21:21.744Z,4.48
2022-11-24T06:23:52.285Z,4.79
2022-11-24T06:26:22.707Z,4.91
2022-11-24T06:28:55.308Z,4.82
2022-11-24T06:31:25.735Z,4.69
2022-11-24T06:33:55.831Z,4.61
2022-11-24T06:36:25.875Z,4.68
2022-11-24T06:38:56.279Z,4.77
2022-11-24T06:41:26.301Z,4.78
2022-11-24T06:43:59.207Z,4.85
2022-11-24T06:46:29.281Z,4.84
2022-11-24T06:48:59.692Z,4.90
2022-11-24T06:51:30.281Z,5.08
2022-11-24T06:54:00.440Z,5.26
2022-11-24T06:56:30.540Z,5.23
2022-11-24T06:59:04.101Z,5.29
2022-11-24T07:01:34.485Z,5.31
2022-11-24T07:04:04.583Z,5.32
2022-11-24T07:06:34.788Z,5.33
2022-11-24T07:09:04.824Z,5.36
2022-11-24T07:11:34.886Z,5.42
2022-11-24T07:14:07.892Z,5.53
2022-11-24T07:16:38.634Z,5.60
2022-11-24T07:19:08.610Z,5.71
2022-11-24T07:21:38.633Z,5.74
2022-11-24T07:24:09.978Z,5.76
2022-11-24T07:26:40.364Z,5.79
2022-11-24T07:29:12.968Z,5.90
2022-11-24T07:31:43.085Z,5.96
2022-11-24T07:34:14.736Z,6.03
2022-11-24T07:36:45.413Z,6.10
2022-11-24T07:39:15.394Z,6.08
2022-11-24T07:41:45.422Z,6.09
2022-11-24T07:44:18.098Z,6.07
2022-11-24T07:46:50.243Z,6.06
2022-11-24T07:49:20.500Z,6.11
2022-11-24T07:51:50.608Z,6.09
2022-11-24T07:54:20.622Z,5.91
2022-11-24T07:56:51.386Z,6.03
2022-11-24T07:59:23.960Z,6.12
2022-11-24T08:01:53.986Z,6.25
2022-11-24T08:04:24.169Z,6.37
2022-11-24T08:06:54.164Z,6.44
2022-11-24T08:09:24.473Z,6.47
2022-11-24T08:11:54.521Z,6.51
2022-11-24T08:14:27.749Z,6.42
2022-11-24T08:16:58.162Z,6.49
2022-11-24T08:19:28.210Z,6.61
2022-11-24T08:21:58.219Z,6.60
2022-11-24T08:24:29.944Z,6.61
2022-11-24T08:27:00.028Z,6.67
2022-11-24T08:29:35.013Z,6.71
2022-11-24T08:32:05.103Z,6.77
2022-11-24T08:34:35.374Z,6.92
2022-11-24T08:37:07.072Z,7.02
2022-11-24T08:39:38.661Z,7.06
2022-11-24T08:42:08.792Z,7.13
2022-11-24T08:44:41.627Z,7.18
2022-11-24T08:47:11.765Z,7.19
2022-11-24T08:49:41.841Z,7.23
2022-11-24T08:52:11.898Z,7.30
2022-11-24T08:54:44.410Z,7.31
2022-11-24T08:57:21.638Z,7.36
2022-11-24T08:59:54.852Z,7.24
2022-11-24T09:02:24.878Z,7.12
2022-11-24T09:04:54.830Z,7.10
2022-11-24T09:07:25.074Z,7.14
2022-11-24T09:09:55.144Z,7.19
2022-11-24T09:12:25.153Z,7.21
2022-11-24T09:14:57.709Z,7.25
2022-11-24T09:17:27.719Z,7.34
2022-11-24T09:19:57.887Z,7.34
2022-11-24T09:22:27.954Z,7.26
2022-11-24T09:24:57.983Z,7.31
2022-11-24T09:27:28.150Z,7.45
2022-11-24T09:30:00.838Z,7.50
2022-11-24T09:32:32.448Z,7.51
2022-11-24T09:35:02.578Z,7.64
2022-11-24T09:37:34.966Z,7.69
2022-11-24T09:40:05.033Z,7.77
2022-11-24T09:42:50.670Z,7.91
2022-11-24T09:48:13.780Z,7.89
2022-11-24T09:50:46.368Z,7.59
2022-11-24T09:53:25.766Z,7.61
2022-11-24T09:56:01.509Z,7.56
2022-11-24T10:01:34.449Z,7.60
2022-11-24T10:04:06.826Z,7.49
2022-11-24T10:06:47.051Z,7.84
2022-11-24T10:09:59.572Z,8.12
2022-11-24T10:12:52.630Z,8.13
2022-11-24T10:25:16.812Z,8.09
2022-11-24T10:28:16.106Z,7.97
2022-11-24T10:30:47.775Z,8.21
2022-11-24T10:39:32.566Z,8.83
2022-11-24T10:45:14.483Z,9.06
2022-11-24T10:48:42.504Z,9.17
2022-11-24T11:06:14.497Z,9.45
2022-11-24T11:08:44.503Z,9.54
2022-11-24T11:11:25.356Z,10.13
2022-11-24T11:14:03.951Z,9.93
2022-11-24T11:19:54.233Z,9.46
2022-11-24T11:22:44.119Z,9.23
2022-11-24T11:25:29.376Z,9.12
2022-11-24T11:31:23.807Z,9.06
2022-11-24T11:34:03.426Z,8.89
2022-11-24T11:36:36.124Z,8.68
2022-11-24T11:39:07.349Z,8.71
2022-11-24T11:41:59.398Z,8.50
2022-11-24T11:50:04.801Z,8.84
2022-11-24T11:53:08.183Z,9.13
2022-11-24T11:56:00.316Z,9.03
2022-11-24T11:59:07.042Z,9.23
2022-11-24T12:02:05.786Z,9.28
2022-11-24T12:10:44.680Z,9.43
2022-11-24T12:16:31.103Z,9.52
2022-11-24T12:19:21.052Z,9.70
2022-11-24T12:22:17.559Z,9.82
2022-11-24T12:27:49.450Z,10.10
2022-11-24T12:30:37.451Z,9.99
2022-11-24T12:36:04.865Z,10.51
2022-11-24T12:42:03.930Z,10.69
2022-11-24T12:47:46.709Z,11.06
2022-11-24T12:50:22.549Z,11.45
2022-11-24T12:55:53.516Z,11.58
2022-11-24T12:58:34.302Z,11.89
2022-11-24T13:01:38.303Z,11.96
2022-11-24T13:06:57.314Z,12.05
2022-11-24T13:09:27.333Z,11.71
2022-11-24T13:12:11.189Z,11.41
2022-11-24T13:14:46.128Z,11.29
2022-11-24T13:20:33.343Z,10.94
2022-11-24T13:23:09.522Z,10.45
2022-11-24T13:25:56.248Z,9.87
2022-11-24T13:31:26.480Z,9.61
2022-11-24T13:33:56.629Z,9.45
2022-11-24T13:39:51.705Z,9.43
2022-11-24T13:42:42.679Z,9.44
2022-11-24T13:47:57.656Z,9.61
2022-11-24T13:51:11.712Z,9.90
2022-11-24T13:53:49.002Z,10.21
2022-11-24T13:56:31.264Z,10.38
2022-11-24T14:02:24.340Z,10.33
2022-11-24T14:07:56.756Z,10.34
2022-11-24T14:10:35.369Z,10.35
2022-11-24T14:13:44.916Z,10.45
2022-11-24T14:16:21.970Z,10.31
2022-11-24T14:18:54.398Z,10.46
2022-11-24T14:21:32.970Z,10.50
2022-11-24T14:27:20.282Z,10.34
2022-11-24T14:29:59.087Z,10.09
2022-11-24T14:35:27.053Z,9.67
2022-11-24T14:40:46.204Z,9.27
2022-11-24T14:43:23.930Z,9.13
2022-11-24T14:45:58.502Z,9.00
2022-11-24T14:48:31.524Z,8.88
2022-11-24T14:56:42.205Z,9.14
2022-11-24T14:59:26.064Z,9.31
2022-11-24T15:01:56.883Z,9.49
2022-11-24T15:10:04.959Z,9.56
2022-11-24T15:12:40.770Z,9.65
2022-11-24T15:15:23.005Z,9.53
2022-11-24T15:23:30.723Z,9.52
2022-11-24T15:31:53.013Z,9.21
2022-11-24T15:34:23.418Z,8.89
2022-11-24T15:36:53.449Z,8.99
2022-11-24T15:39:23.588Z,8.68
2022-11-24T15:41:53.863Z,8.52
2022-11-24T15:44:23.875Z,8.35
2022-11-24T15:46:56.748Z,8.14
2022-11-24T15:49:26.813Z,7.95
2022-11-24T15:51:56.904Z,7.69
2022-11-24T15:57:13.630Z,7.42
2022-11-24T15:59:43.687Z,7.09
2022-11-24T16:05:18.658Z,6.54
2022-11-24T16:07:48.855Z,6.29
2022-11-24T16:10:28.851Z,6.10
2022-11-24T16:12:59.122Z,5.89
2022-11-24T16:15:29.348Z,5.73
2022-11-24T16:17:59.440Z,5.57
2022-11-24T16:20:35.011Z,5.38
2022-11-24T16:23:05.945Z,5.24
2022-11-24T16:25:36.121Z,5.12
2022-11-24T16:28:06.555Z,5.02
2022-11-24T16:30:36.606Z,4.95
2022-11-24T16:33:07.297Z,4.82
2022-11-24T16:35:40.051Z,4.89
2022-11-24T16:38:12.761Z,4.80
2022-11-24T16:40:43.017Z,4.67
2022-11-24T16:43:13.426Z,4.62
2022-11-24T16:45:45.594Z,4.56
2022-11-24T16:48:15.882Z,4.44
2022-11-24T16:50:48.622Z,4.37
2022-11-24T16:53:18.674Z,4.26
2022-11-24T16:56:00.370Z,4.22
2022-11-24T16:58:30.807Z,4.25
2022-11-24T17:01:06.636Z,4.27
2022-11-24T17:03:38.148Z,4.20
2022-11-24T17:06:15.772Z,4.13
2022-11-24T17:08:48.385Z,4.03
2022-11-24T17:11:21.047Z,3.98
2022-11-24T17:13:51.842Z,3.88
2022-11-24T17:16:24.115Z,3.84
2022-11-24T17:18:54.863Z,3.83
2022-11-24T17:21:29.950Z,3.83
2022-11-24T17:24:02.698Z,3.81
2022-11-24T17:26:32.689Z,3.78
2022-11-24T17:29:02.753Z,3.71
2022-11-24T17:31:35.904Z,3.66
2022-11-24T17:34:08.806Z,3.66
2022-11-24T17:36:44.745Z,3.58
2022-11-24T17:39:15.785Z,3.51
2022-11-24T17:41:48.123Z,3.48
2022-11-24T17:44:18.233Z,3.44
2022-11-24T17:46:48.483Z,3.48
2022-11-24T17:49:18.472Z,3.36
2022-11-24T17:51:51.131Z,3.34
2022-11-24T17:54:56.513Z,3.40
2022-11-24T17:57:11.722Z,3.31
2022-11-24T17:59:41.754Z,3.22
2022-11-24T18:02:12.781Z,3.10
2022-11-24T18:04:42.910Z,3.13
2022-11-24T18:07:15.750Z,3.07
2022-11-24T18:09:46.120Z,3.01
2022-11-24T18:12:16.325Z,2.95
2022-11-24T18:14:46.337Z,2.93
2022-11-24T18:17:16.419Z,2.99
2022-11-24T18:19:46.367Z,2.98
2022-11-24T18:22:36.617Z,2.89
2022-11-24T18:25:10.531Z,2.74
2022-11-24T18:27:41.487Z,2.71
2022-11-24T18:30:12.647Z,2.67
2022-11-24T18:32:42.747Z,2.62
2022-11-24T18:35:13.495Z,2.54
2022-11-24T18:37:46.209Z,2.57
2022-11-24T18:40:16.753Z,2.50
2022-11-24T18:42:46.747Z,2.45
2022-11-24T18:45:16.832Z,2.35
2022-11-24T18:47:46.865Z,2.38
2022-11-24T18:50:17.352Z,2.42
2022-11-24T18:52:50.062Z,2.38
2022-11-24T18:55:20.225Z,2.33
2022-11-24T18:57:50.262Z,2.31
2022-11-24T19:00:20.960Z,2.22
2022-11-24T19:02:53.782Z,2.18
2022-11-24T19:05:24.021Z,2.16
2022-11-24T19:07:56.746Z,2.09
2022-11-24T19:10:26.798Z,2.11
2022-11-24T19:12:59.161Z,2.12
2022-11-24T19:15:32.637Z,2.09
2022-11-24T19:18:03.619Z,2.12
2022-11-24T19:20:33.691Z,2.06
2022-11-24T19:23:06.333Z,2.03
2022-11-24T19:25:36.351Z,2.01
2022-11-24T19:28:09.130Z,2.03
2022-11-24T19:30:39.421Z,2.04
2022-11-24T19:33:11.188Z,2.08
2022-11-24T19:35:41.247Z,2.04
2022-11-24T19:38:15.271Z,1.95
2022-11-24T19:40:45.457Z,1.89
2022-11-24T19:43:15.476Z,1.85
2022-11-24T19:45:45.738Z,1.86
2022-11-24T19:48:16.070Z,1.87
2022-11-24T19:50:46.393Z,1.80
2022-11-24T19:53:18.995Z,1.89
2022-11-24T19:55:48.996Z,1.71
2022-11-24T19:58:19.067Z,1.78
2022-11-24T20:00:49.369Z,1.80
2022-11-24T20:03:19.649Z,1.87
2022-11-24T20:05:58.028Z,1.78
2022-11-24T20:08:32.281Z,1.72
2022-11-24T20:11:06.584Z,1.62
2022-11-24T20:13:38.678Z,1.61
2022-11-24T20:16:12.156Z,1.50
2022-11-24T20:18:45.261Z,1.41
2022-11-24T20:21:18.134Z,1.38
2022-11-24T20:23:56.894Z,1.41
2022-11-24T20:26:31.623Z,1.51
2022-11-24T20:29:04.115Z,1.51
2022-11-24T20:31:37.659Z,1.50
2022-11-24T20:34:10.046Z,1.54
2022-11-24T20:36:42.705Z,1.52
2022-11-24T20:39:20.472Z,1.52
2022-11-24T20:41:50.819Z,1.53
2022-11-24T20:44:24.955Z,1.54
2022-11-24T20:46:59.821Z,1.52
2022-11-24T20:49:31.105Z,1.54
2022-11-24T20:52:01.842Z,1.58
2022-11-24T20:54:35.110Z,1.52
2022-11-24T20:57:05.541Z,1.43
2022-11-24T20:59:35.839Z,1.33
2022-11-24T21:02:06.058Z,1.25
2022-11-24T21:04:36.943Z,1.22
2022-11-24T21:07:07.695Z,1.18
2022-11-24T21:09:40.495Z,1.01
2022-11-24T21:12:11.042Z,0.99
2022-11-24T21:14:41.677Z,0.94
2022-11-24T21:17:12.572Z,0.99
2022-11-24T21:19:42.664Z,0.97
2022-11-24T21:22:12.819Z,1.00
2022-11-24T21:24:45.526Z,0.99
2022-11-24T21:27:15.610Z,0.99
2022-11-24T21:29:45.643Z,1.01
2022-11-24T21:32:15.698Z,1.16
2022-11-24T21:34:45.759Z,1.14
2022-11-24T21:37:15.863Z,1.15
2022-11-24T21:39:49.745Z,1.11
2022-11-24T21:42:19.754Z,1.10
2022-11-24T21:44:49.804Z,1.10
2022-11-24T21:47:19.808Z,1.22
2022-11-24T21:49:49.781Z,1.26
2022-11-24T21:52:19.829Z,1.35
2022-11-24T21:54:52.436Z,1.35
2022-11-24T21:57:23.173Z,1.50
2022-11-24T21:59:53.158Z,1.49
2022-11-24T22:02:23.224Z,1.43
2022-11-24T22:04:53.511Z,1.36
2022-11-24T22:07:23.563Z,1.24
2022-11-24T22:09:56.249Z,1.15
2022-11-24T22:12:26.317Z,1.32
2022-11-24T22:14:56.309Z,1.41
2022-11-24T22:17:26.288Z,1.40
2022-11-24T22:19:56.284Z,1.28
2022-11-24T22:22:26.321Z,1.40
2022-11-24T22:24:58.896Z,1.33
2022-11-24T22:27:28.861Z,1.16
2022-11-24T22:29:58.907Z,1.06
2022-11-24T22:32:28.895Z,0.94
2022-11-24T22:34:58.898Z,0.88
2022-11-24T22:37:28.870Z,1.14
2022-11-24T22:40:01.496Z,1.20
2022-11-24T22:42:31.485Z,1.11
2022-11-24T22:45:01.570Z,1.14
2022-11-24T22:47:31.657Z,1.14
2022-11-24T22:50:01.884Z,1.03
2022-11-24T22:52:33.785Z,1.07
2022-11-24T22:55:06.888Z,1.14
2022-11-24T22:57:36.872Z,1.01
2022-11-24T23:00:08.487Z,0.93
2022-11-24T23:02:38.802Z,0.85
2022-11-24T23:05:09.831Z,0.78
2022-11-24T23:07:40.007Z,0.78
2022-11-24T23:10:14.439Z,0.69
2022-11-24T23:12:44.558Z,0.96
2022-11-24T23:15:14.810Z,1.12
2022-11-24T23:17:44.843Z,1.05
2022-11-24T23:20:17.221Z,0.89
2022-11-24T23:22:47.441Z,0.72
2022-11-24T23:25:20.187Z,0.59
2022-11-24T23:27:50.156Z,0.43
2022-11-24T23:30:20.449Z,0.41
2022-11-24T23:32:50.514Z,0.37
2022-11-24T23:35:20.756Z,0.28
2022-11-24T23:38:07.042Z,0.30
2022-11-24T23:40:40.274Z,0.56
2022-11-24T23:43:10.370Z,0.62
2022-11-24T23:45:40.448Z,0.57
2022-11-24T23:48:10.779Z,0.54
2022-11-24T23:50:41.867Z,0.51
2022-11-24T23:53:11.976Z,0.58
2022-11-24T23:55:44.569Z,0.67
2022-11-24T23:58:15.022Z,0.52
